Terminal Aerodrome Forecast
Issued by NWS

Home | Current Version | Previous Version | Graphics & Text | Print | Product List | Glossary On
Versions: 1 2 3 4 5 6 7 8 9 10 11 12 13 14 15 16 17
000
FTUS43 KGRB 261720
TAFAUW
TAF
KAUW 261720Z 2618/2718 26008KT P6SM FEW045 SCT090
     FM262300 25005KT P6SM SCT100 SCT250
     FM270800 VRB03KT P6SM VCSH SCT070 BKN120
      TEMPO 2708/2712 5SM BR
     FM271200 29003KT P6SM VCSH SCT050 OVC100=

USA.gov is the U.S. government's official web portal to all federal, state and local government web resources and services.